createdAt,value
2023-10-23T00:01:37.479Z,0.57
2023-10-23T00:11:39.692Z,0.87
2023-10-23T00:21:53.976Z,0.30
2023-10-23T00:31:56.644Z,0.53
2023-10-23T00:42:01.420Z,0.70
2023-10-23T00:52:12.366Z,1.33
2023-10-23T01:02:17.682Z,0.40
2023-10-23T01:12:24.360Z,0.53
2023-10-23T01:22:29.926Z,0.43
2023-10-23T01:32:33.096Z,1.23
2023-10-23T01:42:41.052Z,0.67
2023-10-23T01:52:46.416Z,0.30
2023-10-23T02:02:51.721Z,0.40
2023-10-23T02:12:56.467Z,1.00
2023-10-23T02:23:04.063Z,0.50
2023-10-23T02:33:12.034Z,0.50
2023-10-23T02:43:26.008Z,0.47
2023-10-23T02:53:32.946Z,1.73
2023-10-23T03:03:37.900Z,1.63
2023-10-23T03:13:40.562Z,0.90
2023-10-23T03:23:45.379Z,1.43
2023-10-23T03:33:53.572Z,0.53
2023-10-23T03:43:55.906Z,0.80
2023-10-23T03:54:05.127Z,0.30
2023-10-23T04:04:11.709Z,0.40
2023-10-23T04:14:14.194Z,0.30
2023-10-23T04:24:20.958Z,0.60
2023-10-23T04:34:26.354Z,0.23
2023-10-23T04:44:32.280Z,4.87
2023-10-23T04:54:38.992Z,19.40
2023-10-23T05:04:45.847Z,35.90
2023-10-23T05:14:50.414Z,32.90
2023-10-23T05:24:53.793Z,34.43
2023-10-23T05:34:57.124Z,39.10
2023-10-23T05:45:04.428Z,37.97
2023-10-23T05:55:10.135Z,38.67
2023-10-23T06:05:16.489Z,36.67
2023-10-23T06:15:23.492Z,40.07
2023-10-23T06:25:30.944Z,34.58
2023-10-23T06:35:33.284Z,29.55
2023-10-23T06:46:00.590Z,31.40
2023-10-23T06:56:04.163Z,31.60
2023-10-23T07:06:08.202Z,35.28
2023-10-23T07:16:15.325Z,32.28
2023-10-23T07:26:19.797Z,29.80
2023-10-23T07:36:24.920Z,35.83
2023-10-23T07:46:30.953Z,37.88
2023-10-23T07:56:42.096Z,29.05
2023-10-23T08:06:48.738Z,31.70
2023-10-23T08:16:54.357Z,29.52
2023-10-23T08:26:59.746Z,26.17
2023-10-23T08:37:06.882Z,27.30
2023-10-23T08:47:14.611Z,25.98
2023-10-23T08:57:21.834Z,24.73
2023-10-23T09:07:28.595Z,24.60
2023-10-23T09:17:33.159Z,25.50
2023-10-23T09:27:36.856Z,28.48
2023-10-23T09:37:42.648Z,25.98
2023-10-23T09:47:49.673Z,22.35
2023-10-23T09:57:55.666Z,24.65
2023-10-23T10:08:05.438Z,21.95
2023-10-23T10:18:07.858Z,21.92
2023-10-23T10:28:11.561Z,18.98
2023-10-23T10:38:24.072Z,21.50
2023-10-23T10:48:27.333Z,17.20
2023-10-23T10:58:34.058Z,20.95
2023-10-23T11:08:42.828Z,19.35
2023-10-23T11:18:49.945Z,18.23
2023-10-23T11:28:54.826Z,18.20
2023-10-23T11:38:58.316Z,20.92
2023-10-23T11:49:09.674Z,14.77
2023-10-23T11:59:19.497Z,16.30
2023-10-23T12:09:29.289Z,16.20
2023-10-23T12:19:37.249Z,14.20
2023-10-23T12:29:42.628Z,15.43
2023-10-23T12:39:47.791Z,10.60
2023-10-23T12:49:50.550Z,10.70
2023-10-23T13:00:00.533Z,11.02
2023-10-23T13:10:08.217Z,12.95
2023-10-23T13:21:26.961Z,13.20
2023-10-23T13:30:36.569Z,12.50
2023-10-23T13:40:44.059Z,12.43
2023-10-23T13:50:52.212Z,12.32
2023-10-23T14:00:55.560Z,12.80
2023-10-23T14:11:29.640Z,11.80
2023-10-23T14:21:29.681Z,12.75
2023-10-23T14:31:36.265Z,14.02
2023-10-23T14:41:41.223Z,14.82
2023-10-23T14:51:43.504Z,9.80
2023-10-23T15:01:48.459Z,12.10
2023-10-23T15:11:52.848Z,10.73
2023-10-23T15:22:00.561Z,14.25
2023-10-23T15:32:06.416Z,12.63
2023-10-23T15:42:13.364Z,13.73
2023-10-23T15:52:20.196Z,12.90
2023-10-23T16:02:22.693Z,12.17
2023-10-23T16:12:27.834Z,16.40
2023-10-23T16:22:36.688Z,14.73
2023-10-23T16:32:41.945Z,11.83
2023-10-23T16:42:44.181Z,14.27
2023-10-23T16:52:50.527Z,12.55
2023-10-23T17:02:56.645Z,13.50
2023-10-23T17:12:58.898Z,19.02
2023-10-23T17:23:04.521Z,17.17
2023-10-23T17:33:11.755Z,15.25
2023-10-23T17:43:18.172Z,14.82
2023-10-23T17:53:20.858Z,15.02
2023-10-23T18:03:25.584Z,11.13
2023-10-23T18:13:30.312Z,12.57
2023-10-23T18:23:35.818Z,13.83
2023-10-23T18:33:38.342Z,11.88
2023-10-23T18:43:46.779Z,13.57
2023-10-23T18:53:49.173Z,13.60
2023-10-23T19:03:57.565Z,10.70
2023-10-23T19:14:03.008Z,11.93
2023-10-23T19:24:14.218Z,11.97
2023-10-23T19:34:17.859Z,12.80
2023-10-23T19:44:23.233Z,18.63
2023-10-23T19:54:37.336Z,15.85
2023-10-23T20:04:46.797Z,19.47
2023-10-23T20:14:51.586Z,20.50
2023-10-23T20:24:58.405Z,18.00
2023-10-23T20:35:08.826Z,20.07
2023-10-23T20:45:11.476Z,20.47
2023-10-23T20:55:13.880Z,21.27
2023-10-23T21:05:16.305Z,20.43
2023-10-23T21:15:18.519Z,23.43
2023-10-23T21:25:26.994Z,21.37
2023-10-23T21:35:30.687Z,23.47
2023-10-23T21:45:35.840Z,27.77
2023-10-23T21:55:44.673Z,28.77
2023-10-23T22:05:50.855Z,30.33
2023-10-23T22:15:55.868Z,38.63
2023-10-23T22:26:00.668Z,22.93
2023-10-23T22:36:03.297Z,27.57
2023-10-23T22:46:09.197Z,28.67
2023-10-23T22:56:19.795Z,29.03
2023-10-23T23:06:30.844Z,26.70
2023-10-23T23:16:37.741Z,35.03
2023-10-23T23:26:42.159Z,28.10
2023-10-23T23:36:55.956Z,32.80
2023-10-23T23:47:05.509Z,26.50
2023-10-23T23:57:11.299Z,28.03
